Time;durP1;ratioP1;P1;durP2;ratioP2;P2;SDS_P1;SDS_P2;PMS_P1;PMS_P2;Temp;Humidity;BMP_temperature;BMP_pressure;BME280_temperature;BME280_humidity;BME280_pressure;Samples;Min_cycle;Max_cycle;Signal;HPM_P1;HPM_P2
2023/03/16 00:00:20;;;;;;;;;7.00;3.00;;;;;11.88;83.98;101342.53;5057565;28;56312;-75
2023/03/16 00:02:45;;;;;;;;;6.00;2.75;;;;;11.86;83.80;101331.03;5058210;28;45159;-74
2023/03/16 00:05:12;;;;;;;;;2.00;2.00;;;;;11.88;83.58;101339.88;5045530;28;45565;-75
2023/03/16 00:07:38;;;;;;;;;4.00;2.67;;;;;11.87;83.06;101324.84;5058309;28;45533;-75
2023/03/16 00:10:04;;;;;;;;;4.67;2.00;;;;;11.87;82.86;101323.97;5044065;28;45327;-75
2023/03/16 00:12:33;;;;;;;;;4.50;4.00;;;;;11.87;82.39;101326.59;5058381;28;45464;-74
2023/03/16 00:14:59;;;;;;;;;2.67;2.67;;;;;11.86;82.45;101319.53;5065546;28;45511;-75
2023/03/16 00:17:25;;;;;;;;;2.67;2.67;;;;;11.85;82.09;101323.94;5037209;28;47847;-74
2023/03/16 00:19:53;;;;;;;;;2.00;2.00;;;;;11.82;82.25;101323.91;5047679;28;45476;-75
2023/03/16 00:22:20;;;;;;;;;3.00;2.00;;;;;11.82;82.13;101318.59;5056998;28;45439;-74
2023/03/16 00:24:45;;;;;;;;;2.00;2.00;;;;;11.78;81.74;101316.78;5054545;28;45497;-74
2023/03/16 00:27:13;;;;;;;;;5.00;2.00;;;;;11.77;81.74;101322.91;5043148;28;70717;-75
2023/03/16 00:29:45;;;;;;;;;1.67;1.67;;;;;11.74;82.16;101321.13;5141829;22;46034;-75
2023/03/16 00:32:15;;;;;;;;;2.67;2.67;;;;;11.72;81.85;101322.00;5054014;28;45461;-75
2023/03/16 00:34:41;;;;;;;;;7.33;4.33;;;;;11.70;81.91;101310.47;5057319;28;45470;-76
2023/03/16 00:37:12;;;;;;;;;3.67;3.33;;;;;11.70;81.92;101316.66;5057685;28;47539;-76
2023/03/16 00:39:38;;;;;;;;;4.75;4.50;;;;;11.70;81.58;101308.72;5049729;28;45614;-77
2023/03/16 00:42:03;;;;;;;;;4.33;4.33;;;;;11.71;81.42;101307.84;5059039;27;45418;-75
2023/03/16 00:44:29;;;;;;;;;5.25;3.25;;;;;11.71;81.85;101291.97;5055638;28;45615;-76
2023/03/16 00:46:54;;;;;;;;;8.67;4.00;;;;;11.68;81.52;101284.00;5056592;28;48993;-75
2023/03/16 00:49:21;;;;;;;;;5.33;3.00;;;;;11.67;81.50;101289.28;5050645;28;45275;-76
2023/03/16 00:51:46;;;;;;;;;4.33;3.00;;;;;11.65;81.11;101291.00;5046372;28;45326;-75
2023/03/16 00:54:11;;;;;;;;;4.00;2.67;;;;;11.63;81.27;101296.28;5051479;28;45394;-75
2023/03/16 00:56:37;;;;;;;;;4.00;3.00;;;;;11.61;81.74;101297.09;5057129;28;45422;-75
2023/03/16 00:59:04;;;;;;;;;3.00;3.00;;;;;11.60;81.60;101306.81;5057471;28;45397;-75
2023/03/16 01:01:31;;;;;;;;;4.00;4.00;;;;;11.61;81.93;101312.97;5053811;28;45433;-74
2023/03/16 01:03:58;;;;;;;;;4.00;3.00;;;;;11.59;81.76;101310.31;5044672;28;45330;-75
2023/03/16 01:06:24;;;;;;;;;3.50;3.50;;;;;11.59;81.72;101317.38;5053031;28;46432;-76
2023/03/16 01:08:51;;;;;;;;;3.67;3.67;;;;;11.58;82.03;101320.88;5056525;28;45820;-75
2023/03/16 01:11:19;;;;;;;;;5.67;3.67;;;;;11.54;82.27;101322.59;5054381;28;45457;-76
2023/03/16 01:13:48;;;;;;;;;5.00;3.50;;;;;11.51;82.32;101301.41;5044611;28;45345;-76
2023/03/16 01:16:15;;;;;;;;;3.00;3.00;;;;;11.48;82.32;101291.66;5057138;28;46882;-76
2023/03/16 01:18:41;;;;;;;;;5.00;4.00;;;;;11.46;82.11;101274.00;5056686;28;45352;-75
2023/03/16 01:21:07;;;;;;;;;5.00;4.00;;;;;11.43;82.08;101274.84;5054411;28;45369;-76
2023/03/16 01:23:34;;;;;;;;;4.00;3.00;;;;;11.41;82.39;101259.81;5047863;28;45495;-75
2023/03/16 01:26:01;;;;;;;;;3.67;3.67;;;;;11.38;82.34;101259.78;5042726;28;46791;-76
2023/03/16 01:28:28;;;;;;;;;4.75;3.25;;;;;11.34;82.58;101256.19;5072606;28;46129;-76
2023/03/16 01:30:56;;;;;;;;;5.67;3.00;;;;;11.32;82.57;101251.75;5040640;28;45471;-75
2023/03/16 01:33:23;;;;;;;;;7.25;5.00;;;;;11.31;82.73;101255.28;5047983;28;45493;-75
2023/03/16 01:36:18;;;;;;;;;3.67;3.67;;;;;11.30;83.20;101253.50;5048381;28;47645;-75
2023/03/16 01:38:43;;;;;;;;;4.00;4.00;;;;;11.25;83.59;101248.13;5052036;28;45306;-75
2023/03/16 01:41:09;;;;;;;;;3.00;3.00;;;;;11.24;83.92;101252.53;5059889;28;45486;-75
2023/03/16 01:43:37;;;;;;;;;4.00;3.00;;;;;11.21;84.48;101244.56;5056059;28;45452;-75
2023/03/16 01:46:05;;;;;;;;;7.00;3.00;;;;;11.19;84.83;101245.41;5045787;28;46422;-75
2023/03/16 01:48:44;;;;;;;;;5.00;3.75;;;;;11.19;84.81;101242.75;5051079;28;45339;-76
2023/03/16 01:51:34;;;;;;;;;2.00;2.00;;;;;11.17;84.92;101245.34;5045972;28;45783;-75
2023/03/16 01:54:13;;;;;;;;;6.00;3.75;;;;;11.16;85.28;101237.41;5042710;28;45811;-75
2023/03/16 01:56:44;;;;;;;;;3.00;3.00;;;;;11.15;85.34;101233.88;5051648;28;46498;-75
2023/03/16 01:59:13;;;;;;;;;2.25;2.25;;;;;11.14;85.36;101226.84;5044725;28;45532;-75
2023/03/16 02:01:39;;;;;;;;;6.00;2.25;;;;;11.14;85.31;101221.56;5035214;28;45505;-75
2023/03/16 02:04:13;;;;;;;;;5.00;3.75;;;;;11.12;85.43;101215.31;5037856;28;54302;-76
2023/03/16 02:06:39;;;;;;;;;3.75;2.00;;;;;11.09;85.63;101207.38;5046961;28;46683;-76
2023/03/16 02:09:05;;;;;;;;;3.00;3.00;;;;;11.09;85.53;101214.41;5051604;28;66197;-76
2023/03/16 02:11:30;;;;;;;;;5.75;4.00;;;;;11.08;85.60;101218.81;5054695;28;45535;-76
2023/03/16 02:13:59;;;;;;;;;1.00;1.00;;;;;11.05;85.43;101216.13;5056099;28;57626;-76
2023/03/16 02:16:24;;;;;;;;;5.00;3.25;;;;;11.04;85.89;101221.38;5050734;28;46938;-75
2023/03/16 02:18:50;;;;;;;;;3.67;3.67;;;;;11.01;85.99;101216.94;5055826;28;71197;-76
2023/03/16 02:21:18;;;;;;;;;7.50;4.00;;;;;10.99;85.77;101216.91;5052982;28;45366;-75
2023/03/16 02:23:44;;;;;;;;;3.50;3.50;;;;;10.96;86.00;101215.97;5033883;28;45528;-75
2023/03/16 02:26:27;;;;;;;;;5.00;4.00;;;;;10.94;86.05;101217.72;5054743;28;45593;-75
2023/03/16 02:28:53;;;;;;;;;4.75;4.75;;;;;10.93;85.85;101208.91;5053949;28;45485;-75
2023/03/16 02:31:19;;;;;;;;;5.00;3.50;;;;;10.92;85.87;101206.22;5056522;28;45434;-75
2023/03/16 02:33:46;;;;;;;;;4.50;3.75;;;;;10.89;86.11;101208.81;5051413;28;62247;-76
2023/03/16 02:36:13;;;;;;;;;8.00;5.00;;;;;10.85;86.25;101202.59;5055334;28;46708;-76
2023/03/16 02:38:39;;;;;;;;;4.00;4.00;;;;;10.79;86.31;101194.56;5048576;28;45303;-75
2023/03/16 02:41:16;;;;;;;;;5.00;3.00;;;;;10.78;86.18;101194.56;5051160;28;45325;-76
2023/03/16 02:43:47;;;;;;;;;10.75;5.00;;;;;10.76;86.19;101194.53;5029575;28;45450;-77
2023/03/16 02:46:12;;;;;;;;;3.75;3.75;;;;;10.74;86.03;101183.03;5045609;28;46785;-76
2023/03/16 02:49:10;;;;;;;;;3.00;3.00;;;;;10.72;86.23;101174.22;5047572;28;45527;-76
2023/03/16 02:51:35;;;;;;;;;3.50;3.25;;;;;10.69;86.56;101163.59;5042162;28;45443;-75
2023/03/16 02:54:01;;;;;;;;;4.00;4.00;;;;;10.67;86.55;101167.97;5037945;28;45445;-75
2023/03/16 02:56:26;;;;;;;;;5.25;5.25;;;;;10.63;86.88;101169.66;5043088;28;56495;-76
2023/03/16 02:58:51;;;;;;;;;6.00;3.50;;;;;10.63;86.56;101169.66;5054844;28;69330;-75
2023/03/16 03:01:17;;;;;;;;;6.50;4.00;;;;;10.61;86.74;101154.69;5053494;28;45512;-75
2023/03/16 03:03:42;;;;;;;;;4.50;4.00;;;;;10.58;86.81;101154.63;5050797;28;45395;-76
2023/03/16 03:06:08;;;;;;;;;4.50;4.25;;;;;10.56;87.25;101153.72;5047565;28;47437;-75
2023/03/16 03:08:33;;;;;;;;;7.00;3.75;;;;;10.53;86.73;101151.91;5035921;28;45357;-75
2023/03/16 03:10:59;;;;;;;;;4.00;4.00;;;;;10.54;86.47;101158.06;5041198;28;64215;-75
2023/03/16 03:13:24;;;;;;;;;4.00;3.25;;;;;10.54;86.84;101152.78;5042283;28;45504;-75
2023/03/16 03:15:49;;;;;;;;;4.00;2.25;;;;;10.52;87.03;101147.50;5053471;28;71908;-76
2023/03/16 03:18:15;;;;;;;;;3.00;3.00;;;;;10.53;86.37;101148.38;5049811;28;60085;-75
2023/03/16 03:20:40;;;;;;;;;3.75;3.00;;;;;10.52;86.16;101147.50;5049366;28;45389;-75
2023/03/16 03:23:06;;;;;;;;;7.25;3.25;;;;;10.50;86.14;101146.59;5051111;28;61353;-75
2023/03/16 03:25:34;;;;;;;;;8.00;4.00;;;;;10.52;86.21;101146.59;5040241;28;56343;-76
2023/03/16 03:28:01;;;;;;;;;3.50;3.00;;;;;10.52;85.86;101154.53;5058010;28;45256;-75
2023/03/16 03:30:27;;;;;;;;;6.00;3.25;;;;;10.50;85.44;101154.50;5056384;28;45313;-75
2023/03/16 03:32:53;;;;;;;;;7.50;2.75;;;;;10.49;85.58;101150.06;5056776;28;45374;-75
2023/03/16 03:35:20;;;;;;;;;3.25;3.00;;;;;10.48;85.75;101146.53;5054336;28;45372;-75
2023/03/16 03:37:46;;;;;;;;;4.00;4.00;;;;;10.48;85.49;101149.19;5053899;28;45309;-75
2023/03/16 03:40:14;;;;;;;;;5.25;2.00;;;;;10.46;85.03;101147.38;5054953;28;45262;-75
2023/03/16 03:42:41;;;;;;;;;2.75;2.75;;;;;10.45;84.76;101137.69;5047267;28;45533;-76
2023/03/16 03:45:08;;;;;;;;;3.00;3.00;;;;;10.44;84.92;101138.56;5057084;28;45878;-75
2023/03/16 03:47:33;;;;;;;;;3.00;3.00;;;;;10.42;84.61;101142.91;5057092;28;45342;-75
2023/03/16 03:49:59;;;;;;;;;6.75;2.00;;;;;10.42;84.98;101141.16;5055618;28;61311;-76
2023/03/16 03:52:24;;;;;;;;;3.75;2.25;;;;;10.43;84.18;101140.28;5046985;28;62459;-75
2023/03/16 03:54:50;;;;;;;;;3.50;3.50;;;;;10.43;84.31;101132.38;5058900;28;48635;-76
2023/03/16 03:57:15;;;;;;;;;3.25;3.00;;;;;10.41;83.99;101135.88;5058552;28;45450;-76
2023/03/16 03:59:43;;;;;;;;;2.00;2.00;;;;;10.43;83.98;101140.28;5046263;28;45428;-76
2023/03/16 04:02:09;;;;;;;;;5.00;2.00;;;;;10.41;83.77;101128.84;5058566;28;45481;-75
2023/03/16 04:04:35;;;;;;;;;7.00;3.50;;;;;10.40;83.93;101118.25;5044346;28;46541;-75
2023/03/16 04:07:00;;;;;;;;;3.25;3.25;;;;;10.40;83.96;101126.19;5058391;28;45337;-75
2023/03/16 04:09:26;;;;;;;;;3.00;3.00;;;;;10.38;83.89;101117.31;5054885;28;54569;-75
2023/03/16 04:11:51;;;;;;;;;5.75;2.75;;;;;10.38;84.09;101120.84;5054437;28;64494;-75
2023/03/16 04:14:16;;;;;;;;;3.50;2.00;;;;;10.34;84.01;101111.13;5056649;28;46268;-75
2023/03/16 04:16:44;;;;;;;;;2.25;2.25;;;;;10.31;84.26;101111.06;5047050;28;65404;-76
2023/03/16 04:19:10;;;;;;;;;3.25;3.00;;;;;10.29;84.25;101104.00;5045012;28;67117;-76
2023/03/16 04:21:36;;;;;;;;;2.00;2.00;;;;;10.25;83.65;101095.13;5055352;28;46059;-76
2023/03/16 04:24:03;;;;;;;;;3.75;2.75;;;;;10.20;83.75;101092.38;5054421;28;45755;-76
2023/03/16 04:26:30;;;;;;;;;2.00;2.00;;;;;10.16;83.59;101093.19;5057833;28;45422;-75
2023/03/16 04:28:56;;;;;;;;;3.75;3.00;;;;;10.12;83.58;101083.47;5056514;28;45350;-75
2023/03/16 04:31:22;;;;;;;;;2.00;2.00;;;;;10.07;83.91;101085.13;5055935;28;45561;-75
2023/03/16 04:33:47;;;;;;;;;2.00;2.00;;;;;10.08;83.32;101080.75;5053697;28;62905;-75
2023/03/16 04:36:13;;;;;;;;;4.00;1.00;;;;;10.03;83.19;101083.31;5050999;28;69517;-76
2023/03/16 04:38:39;;;;;;;;;2.00;2.00;;;;;10.06;82.89;101085.09;5046045;28;45395;-75
2023/03/16 04:41:05;;;;;;;;;4.00;2.00;;;;;10.03;83.10;101078.03;5055264;28;45687;-76
2023/03/16 04:43:34;;;;;;;;;2.00;2.00;;;;;10.01;83.31;101074.44;5054419;28;45694;-76
2023/03/16 04:46:01;;;;;;;;;3.00;2.00;;;;;10.02;82.82;101078.88;5030114;28;45444;-75
2023/03/16 04:48:31;;;;;;;;;1.25;1.25;;;;;10.04;82.41;101076.28;5057720;28;45425;-75
2023/03/16 04:50:56;;;;;;;;;1.50;1.50;;;;;10.04;82.66;101076.28;5055677;28;45502;-75
2023/03/16 04:53:22;;;;;;;;;3.00;1.00;;;;;10.02;83.00;101078.88;5039576;28;45622;-75
2023/03/16 04:55:47;;;;;;;;;1.50;1.50;;;;;10.02;82.51;101075.38;5040218;28;58469;-75
2023/03/16 04:58:12;;;;;;;;;1.50;1.00;;;;;10.01;82.38;101068.28;5038413;28;53828;-75
2023/03/16 05:00:39;;;;;;;;;3.00;1.75;;;;;10.00;81.71;101064.78;5057095;28;45195;-74
2023/03/16 05:03:05;;;;;;;;;3.00;1.00;;;;;10.00;82.08;101077.06;5058355;28;45746;-75
2023/03/16 05:05:31;;;;;;;;;2.00;0.00;;;;;9.98;82.43;101075.31;5051562;27;45955;-75
2023/03/16 05:07:56;;;;;;;;;2.75;1.00;;;;;9.96;82.23;101069.13;5046614;28;45347;-75
2023/03/16 05:10:21;;;;;;;;;2.00;1.00;;;;;10.00;82.69;101071.78;5047380;28;61266;-76
2023/03/16 05:12:47;;;;;;;;;2.00;0.00;;;;;10.01;82.44;101061.25;5046345;28;45758;-76
2023/03/16 05:15:13;;;;;;;;;1.00;1.00;;;;;10.00;82.28;101053.34;5051706;28;68605;-75
2023/03/16 05:17:40;;;;;;;;;3.75;2.00;;;;;10.04;82.31;101060.44;5038723;28;45309;-75
2023/03/16 05:20:07;;;;;;;;;1.00;1.00;;;;;10.03;82.02;101053.41;5050701;28;45714;-74
2023/03/16 05:22:34;;;;;;;;;1.00;1.00;;;;;10.05;82.09;101051.66;5048226;28;46747;-75
2023/03/16 05:25:02;;;;;;;;;0.50;0.50;;;;;10.07;81.67;101056.13;5048401;28;45419;-75
2023/03/16 05:27:27;;;;;;;;;2.25;1.25;;;;;10.07;81.70;101052.59;5050896;28;45354;-74
2023/03/16 05:29:53;;;;;;;;;0.50;0.50;;;;;10.07;81.42;101053.47;5055948;28;53572;-75
2023/03/16 05:32:18;;;;;;;;;2.75;1.00;;;;;10.06;81.23;101056.94;5050235;28;71237;-76
2023/03/16 05:34:43;;;;;;;;;0.50;0.25;;;;;10.07;81.45;101061.41;5055685;28;66709;-75
2023/03/16 05:37:09;;;;;;;;;3.75;2.00;;;;;10.06;81.35;101062.22;5047599;28;53522;-75
2023/03/16 05:39:34;;;;;;;;;3.00;1.75;;;;;10.03;81.61;101054.28;5050638;28;45912;-75
2023/03/16 05:42:00;;;;;;;;;1.00;1.00;;;;;10.04;81.05;101063.97;5051520;28;50470;-75
2023/03/16 05:44:25;;;;;;;;;1.25;1.25;;;;;10.00;80.95;101059.50;5053422;28;69240;-76
2023/03/16 05:46:50;;;;;;;;;2.25;1.00;;;;;10.00;80.58;101070.03;5056541;28;57050;-77
2023/03/16 05:49:16;;;;;;;;;1.00;1.00;;;;;9.98;80.74;101058.59;5055384;28;66177;-75
2023/03/16 05:51:41;;;;;;;;;3.25;1.00;;;;;9.93;80.65;101061.16;5056103;28;47851;-75
2023/03/16 05:54:07;;;;;;;;;1.00;1.00;;;;;9.92;80.73;101071.69;5054121;28;45500;-78
2023/03/16 05:56:32;;;;;;;;;0.50;0.50;;;;;9.90;81.07;101057.56;5056788;28;45428;-79
2023/03/16 05:58:59;;;;;;;;;3.00;1.00;;;;;9.86;80.99;101056.63;5052664;28;63491;-80
2023/03/16 06:01:24;;;;;;;;;4.00;2.00;;;;;9.86;81.03;101055.75;5055395;28;47524;-80
2023/03/16 06:03:50;;;;;;;;;0.67;0.00;;;;;9.84;81.34;101054.81;5048266;28;56337;-83
2023/03/16 06:06:16;;;;;;;;;0.00;0.00;;;;;9.83;81.04;101060.97;5047558;28;45427;-83
2023/03/16 06:08:42;;;;;;;;;1.00;1.00;;;;;9.84;81.29;101065.38;5046247;28;45566;-82
2023/03/16 06:11:07;;;;;;;;;2.75;1.00;;;;;9.82;81.13;101057.44;5053933;28;45994;-81
2023/03/16 06:13:33;;;;;;;;;1.00;1.00;;;;;9.84;80.93;101068.88;5041009;28;45414;-83
2023/03/16 06:15:58;;;;;;;;;1.00;1.00;;;;;9.87;81.17;101062.78;5049450;28;45403;-78
2023/03/16 06:18:24;;;;;;;;;2.00;1.00;;;;;9.88;81.21;101060.19;5039178;28;45343;-79
2023/03/16 06:20:49;;;;;;;;;1.00;1.00;;;;;9.91;81.29;101057.59;5055853;28;47104;-78
2023/03/16 06:23:15;;;;;;;;;1.25;1.25;;;;;9.92;80.75;101061.13;5053765;28;45469;-80
2023/03/16 06:25:40;;;;;;;;;0.00;0.00;;;;;9.92;80.62;101053.22;5046583;28;64149;-79
2023/03/16 06:28:06;;;;;;;;;0.00;0.00;;;;;9.96;80.59;101055.94;5055673;28;45271;-79
2023/03/16 06:30:32;;;;;;;;;1.00;1.00;;;;;9.98;80.80;101053.31;5055152;28;46292;-79
2023/03/16 06:32:58;;;;;;;;;0.00;0.00;;;;;10.00;80.55;101050.69;5052462;28;45541;-79
2023/03/16 06:35:24;;;;;;;;;1.50;1.50;;;;;10.02;80.90;101059.53;5054330;28;45477;-81
2023/03/16 06:37:50;;;;;;;;;1.75;1.00;;;;;10.03;80.97;101056.03;5041543;28;45729;-80
2023/03/16 06:40:16;;;;;;;;;2.00;1.00;;;;;10.04;81.36;101042.84;5054830;28;47211;-79
2023/03/16 06:42:41;;;;;;;;;4.00;1.00;;;;;10.07;80.99;101045.56;5039631;28;45440;-78
2023/03/16 06:45:07;;;;;;;;;0.25;0.25;;;;;10.10;80.71;101047.34;5035442;28;60604;-78
2023/03/16 06:47:32;;;;;;;;;1.00;1.00;;;;;10.12;80.51;101051.81;5052775;28;45594;-80
2023/03/16 06:49:58;;;;;;;;;3.00;2.00;;;;;10.15;80.77;101051.84;5044414;28;72723;-78
2023/03/16 06:52:23;;;;;;;;;1.00;1.00;;;;;10.18;80.82;101045.72;5050565;28;45504;-79
2023/03/16 06:54:48;;;;;;;;;1.00;1.00;;;;;10.22;80.52;101034.34;5052353;28;45527;-76
2023/03/16 06:57:14;;;;;;;;;3.00;1.00;;;;;10.23;80.45;101028.22;5049175;28;56938;-78
2023/03/16 06:59:40;;;;;;;;;1.00;1.00;;;;;10.27;80.24;101032.69;5051088;28;56856;-78
2023/03/16 07:02:05;;;;;;;;;3.00;1.00;;;;;10.31;80.24;101031.88;5060880;28;45449;-78
2023/03/16 07:04:31;;;;;;;;;1.00;1.00;;;;;10.32;80.11;101031.00;5052737;28;45484;-77
2023/03/16 07:06:57;;;;;;;;;3.00;1.50;;;;;10.35;79.78;101017.00;5055973;28;45294;-78
2023/03/16 07:09:22;;;;;;;;;2.00;1.25;;;;;10.37;79.97;101033.72;5055484;28;58890;-77
2023/03/16 07:11:48;;;;;;;;;3.00;2.00;;;;;10.39;79.59;101032.91;5043446;28;45493;-77
2023/03/16 07:14:13;;;;;;;;;1.50;1.50;;;;;10.40;79.33;101031.16;5053392;28;45488;-78
2023/03/16 07:16:38;;;;;;;;;1.00;1.00;;;;;10.43;79.25;101033.81;5045631;28;64925;-77
2023/03/16 07:19:04;;;;;;;;;1.25;1.25;;;;;10.44;78.89;101025.06;5045019;28;71473;-77
2023/03/16 07:21:37;;;;;;;;;1.00;1.00;;;;;10.46;79.16;101013.63;5054889;28;59796;-78
2023/03/16 07:24:04;;;;;;;;;1.00;1.00;;;;;10.50;78.92;101025.16;5048460;28;45419;-78
2023/03/16 07:26:29;;;;;;;;;0.67;0.67;;;;;10.52;78.66;101031.31;5049908;28;45362;-78
2023/03/16 07:28:54;;;;;;;;;0.00;0.00;;;;;10.57;78.44;101015.53;5044851;28;47502;-77
2023/03/16 07:31:20;;;;;;;;;1.00;1.00;;;;;10.63;78.63;101015.63;5041059;28;68222;-77
2023/03/16 07:33:45;;;;;;;;;1.00;1.00;;;;;10.68;78.73;101021.84;5043137;28;45883;-76
2023/03/16 07:36:10;;;;;;;;;4.33;0.33;;;;;10.71;78.39;101021.91;5048347;28;65829;-77
2023/03/16 07:38:36;;;;;;;;;1.00;1.00;;;;;10.77;78.28;101019.34;5054272;28;55607;-76
2023/03/16 07:41:01;;;;;;;;;0.67;0.67;;;;;10.82;77.64;101015.00;5056537;28;45516;-78
2023/03/16 07:43:28;;;;;;;;;0.00;0.00;;;;;10.86;77.73;101010.63;5047524;28;45516;-77
2023/03/16 07:45:53;;;;;;;;;8.33;1.00;;;;;10.93;77.19;101016.03;5054473;28;45519;-74
2023/03/16 07:48:19;;;;;;;;;0.33;0.33;;;;;10.98;77.29;101019.63;5050330;28;45962;-76
2023/03/16 07:50:48;;;;;;;;;1.67;1.67;;;;;11.04;77.81;101015.28;5055823;28;45338;-77
2023/03/16 07:53:14;;;;;;;;;5.50;2.00;;;;;11.09;77.13;101017.09;5054427;28;66073;-77
2023/03/16 07:55:41;;;;;;;;;0.33;0.33;;;;;11.16;77.12;101025.97;5051555;28;45533;-76
2023/03/16 07:58:06;;;;;;;;;1.00;1.00;;;;;11.21;77.21;101021.66;5051768;28;46499;-77
2023/03/16 08:00:32;;;;;;;;;1.00;1.00;;;;;11.25;76.81;101034.03;5052309;28;45448;-78
2023/03/16 08:02:58;;;;;;;;;0.67;0.67;;;;;11.29;76.75;101022.59;5046474;28;45462;-78
2023/03/16 08:05:24;;;;;;;;;1.00;1.00;;;;;11.30;76.33;101020.88;5051627;27;45371;-76
2023/03/16 08:07:50;;;;;;;;;3.00;1.00;;;;;11.31;76.51;101028.81;5050854;28;47879;-77
2023/03/16 08:10:16;;;;;;;;;2.00;0.67;;;;;11.32;76.53;101021.75;5051673;28;45977;-76
2023/03/16 08:12:42;;;;;;;;;2.00;1.00;;;;;11.35;76.12;101035.03;5045267;28;45523;-78
2023/03/16 08:15:08;;;;;;;;;0.00;0.00;;;;;11.34;75.32;101027.94;5051755;28;62208;-78
2023/03/16 08:17:35;;;;;;;;;2.00;0.67;;;;;11.32;75.71;101027.06;5050717;28;46588;-78
2023/03/16 08:20:05;;;;;;;;;1.00;1.00;;;;;11.33;75.71;101023.53;5055464;28;45434;-76
2023/03/16 08:22:31;;;;;;;;;2.00;0.00;;;;;11.33;75.59;101032.34;5040614;28;45423;-78
2023/03/16 08:24:57;;;;;;;;;1.00;1.00;;;;;11.34;75.15;101033.22;5044178;28;45592;-77
2023/03/16 08:27:22;;;;;;;;;1.00;1.00;;;;;11.36;75.28;101036.78;5036949;28;45530;-76
2023/03/16 08:29:51;;;;;;;;;1.00;1.00;;;;;11.38;75.85;101014.78;5053534;28;69367;-76
2023/03/16 08:32:17;;;;;;;;;2.00;1.00;;;;;11.46;75.73;101015.75;5053833;28;45449;-79
2023/03/16 08:34:42;;;;;;;;;3.00;2.00;;;;;11.55;75.87;101022.88;5066902;28;45307;-75
2023/03/16 08:37:08;;;;;;;;;1.00;1.00;;;;;11.60;75.72;101023.81;5054781;28;46697;-76
2023/03/16 08:39:34;;;;;;;;;1.00;1.00;;;;;11.63;74.85;101022.97;5050838;28;45749;-82
2023/03/16 08:42:00;;;;;;;;;2.00;2.00;;;;;11.61;75.25;101025.59;5023509;28;45555;-78
2023/03/16 08:44:26;;;;;;;;;2.00;2.00;;;;;11.61;75.29;101015.03;5053378;28;45536;-79
2023/03/16 08:46:51;;;;;;;;;2.67;1.00;;;;;11.58;74.97;101016.75;5053770;28;46586;-75
2023/03/16 08:49:19;;;;;;;;;1.00;1.00;;;;;11.55;75.39;101013.19;5047800;28;47161;-75
2023/03/16 08:51:45;;;;;;;;;4.33;1.33;;;;;11.52;75.09;101012.28;5054605;28;45560;-77
2023/03/16 08:54:11;;;;;;;;;1.00;1.00;;;;;11.53;75.74;101020.22;5049584;28;45406;-75
2023/03/16 08:56:36;;;;;;;;;1.00;1.00;;;;;11.54;75.50;101015.81;5055164;28;46077;-79
2023/03/16 08:59:02;;;;;;;;;3.00;2.00;;;;;11.56;75.36;101011.47;5057324;28;45252;-77
2023/03/16 09:01:28;;;;;;;;;1.33;0.67;;;;;11.63;75.43;101021.22;5054213;28;45545;-78
2023/03/16 09:03:53;;;;;;;;;1.33;1.33;;;;;11.72;75.72;101025.72;5053830;28;45566;-77
2023/03/16 09:06:21;;;;;;;;;2.00;1.33;;;;;11.84;76.52;101025.84;5050751;28;71123;-78
2023/03/16 09:08:46;;;;;;;;;1.00;1.00;;;;;11.95;76.07;101015.34;5052948;28;45523;-77
2023/03/16 09:11:14;;;;;;;;;3.33;2.00;;;;;12.07;76.22;101007.50;5052576;28;45461;-77
2023/03/16 09:13:40;;;;;;;;;0.67;0.67;;;;;12.16;75.77;101012.88;5048474;28;46511;-77
2023/03/16 09:16:07;;;;;;;;;3.00;3.00;;;;;12.22;75.21;101004.09;5044489;28;46877;-78
2023/03/16 09:18:34;;;;;;;;;2.33;1.67;;;;;12.29;75.00;100990.88;5053408;28;45491;-77
2023/03/16 09:21:01;;;;;;;;;3.00;1.00;;;;;12.36;75.52;100991.84;5051936;28;45447;-77
2023/03/16 09:23:28;;;;;;;;;1.00;1.00;;;;;12.48;75.43;100988.38;5056553;28;45235;-78
2023/03/16 09:25:56;;;;;;;;;3.67;1.00;;;;;12.58;75.48;100991.09;5045892;28;45509;-77
2023/03/16 09:28:22;;;;;;;;;2.00;2.00;;;;;12.68;75.08;100991.13;5048633;28;45617;-77
2023/03/16 09:30:49;;;;;;;;;2.00;1.00;;;;;12.79;74.72;100981.47;5054590;28;45608;-78
2023/03/16 09:33:14;;;;;;;;;2.00;2.00;;;;;12.84;74.71;100985.03;5055202;28;45522;-78
2023/03/16 09:35:40;;;;;;;;;2.00;2.00;;;;;12.89;74.48;100979.72;5052136;28;67863;-78
2023/03/16 09:38:06;;;;;;;;;3.00;1.33;;;;;12.96;74.42;100973.59;5042961;28;45412;-77
2023/03/16 09:40:32;;;;;;;;;4.33;1.67;;;;;13.03;74.50;100978.91;5047868;28;45559;-77
2023/03/16 09:43:24;;;;;;;;;3.00;1.33;;;;;13.09;75.26;100970.94;5007873;28;47058;-76
2023/03/16 09:46:11;;;;;;;;;2.67;1.00;;;;;13.19;75.07;100963.03;5021715;28;46699;-77
2023/03/16 09:48:38;;;;;;;;;1.33;1.33;;;;;13.28;75.00;100974.59;5045887;28;45490;-76
2023/03/16 09:51:26;;;;;;;;;4.67;1.00;;;;;13.36;74.66;100979.91;5047793;28;45549;-80
2023/03/16 09:53:56;;;;;;;;;1.00;1.00;;;;;13.41;73.82;100967.53;5044443;28;45886;-78
2023/03/16 09:56:29;;;;;;;;;2.33;1.00;;;;;13.47;73.61;100966.66;5050085;28;47309;-81
2023/03/16 09:58:55;;;;;;;;;1.00;1.00;;;;;13.49;73.46;100968.44;5042407;28;45513;-81
2023/03/16 10:01:27;;;;;;;;;2.00;2.00;;;;;13.52;73.47;100968.41;5053652;28;46510;-79
2023/03/16 10:04:14;;;;;;;;;3.00;2.00;;;;;13.53;73.77;100964.00;5053871;28;45444;-80
2023/03/16 10:07:12;;;;;;;;;1.33;1.33;;;;;13.53;74.09;100964.91;5045002;28;46526;-81
2023/03/16 10:09:40;;;;;;;;;1.67;1.00;;;;;13.59;74.70;100961.38;5023603;28;45555;-79
2023/03/16 10:12:07;;;;;;;;;2.33;2.33;;;;;13.62;73.29;100964.91;5043951;28;45418;-78
2023/03/16 10:14:39;;;;;;;;;1.00;1.00;;;;;13.66;74.12;100957.84;5034165;28;46445;-78
2023/03/16 10:17:20;;;;;;;;;1.67;1.67;;;;;13.71;73.51;100960.50;5041051;28;45516;-78
2023/03/16 10:19:52;;;;;;;;;5.00;2.00;;;;;13.78;73.31;100962.25;5043657;28;45534;-81
2023/03/16 10:22:25;;;;;;;;;4.00;1.00;;;;;13.84;73.55;100970.22;5037266;28;45412;-82
2023/03/16 10:25:01;;;;;;;;;2.00;1.00;;;;;13.93;73.41;100966.69;5049391;28;45605;-77
2023/03/16 10:27:32;;;;;;;;;1.00;1.00;;;;;14.00;73.35;100955.16;5046365;28;47030;-79
2023/03/16 10:30:00;;;;;;;;;2.00;2.00;;;;;14.12;72.76;100950.75;5046327;28;46496;-78
2023/03/16 10:32:30;;;;;;;;;2.33;1.00;;;;;14.21;72.93;100949.81;5044185;28;45351;-78
2023/03/16 10:34:59;;;;;;;;;3.00;2.00;;;;;14.29;73.31;100944.50;5047759;28;45541;-78
2023/03/16 10:37:26;;;;;;;;;2.67;2.00;;;;;14.36;72.96;100946.25;5041439;28;46617;-78
2023/03/16 10:39:53;;;;;;;;;4.67;3.00;;;;;14.41;72.59;100955.09;5052038;28;45556;-79
2023/03/16 10:42:20;;;;;;;;;2.00;2.00;;;;;14.46;72.66;100950.66;5046299;28;45338;-80
2023/03/16 10:45:11;;;;;;;;;;;;;;;;;;;;;
2023/03/16 10:47:37;;;;;;;;;2.33;1.00;;;;;14.58;72.05;100931.16;5016912;28;73969;-87
2023/03/16 10:50:15;;;;;;;;;3.00;2.00;;;;;14.64;72.56;100928.47;5011899;28;58059;-88
2023/03/16 10:52:44;;;;;;;;;2.67;1.67;;;;;14.70;72.08;100927.56;5011770;28;45535;-86
2023/03/16 10:55:19;;;;;;;;;1.67;1.00;;;;;14.74;71.63;100919.56;5006503;28;45313;-78
2023/03/16 10:57:50;;;;;;;;;3.00;1.33;;;;;14.74;71.34;100916.03;5020936;28;46759;-80
2023/03/16 11:00:29;;;;;;;;;3.67;2.00;;;;;14.74;71.46;100914.25;5019233;28;45522;-81
2023/03/16 11:02:58;;;;;;;;;1.33;1.00;;;;;14.68;70.71;100909.84;5016490;28;45419;-77
2023/03/16 11:05:26;;;;;;;;;1.33;1.33;;;;;14.65;70.58;100906.34;5017715;28;45467;-79
2023/03/16 11:07:57;;;;;;;;;5.00;3.67;;;;;14.61;70.77;100902.78;5012819;28;46604;-83
2023/03/16 11:10:32;;;;;;;;;1.00;1.00;;;;;14.65;71.07;100909.00;5016587;28;45649;-78
2023/03/16 11:13:19;;;;;;;;;1.00;0.00;;;;;14.71;71.06;100893.00;5010311;28;45535;-86
2023/03/16 11:15:56;;;;;;;;;2.33;1.00;;;;;14.80;71.96;100905.34;5011494;28;45657;-82
2023/03/16 11:18:34;;;;;;;;;2.00;2.00;;;;;14.87;71.25;100896.47;5009319;28;45752;-82
2023/03/16 11:21:35;;;;;;;;;2.00;2.00;;;;;14.95;71.04;100897.31;5015914;28;45557;-80
2023/03/16 11:24:02;;;;;;;;;2.00;2.00;;;;;14.98;71.73;100881.34;5019560;28;45498;-83
2023/03/16 11:26:35;;;;;;;;;1.00;1.00;;;;;14.99;71.84;100880.44;5003882;28;45533;-80
2023/03/16 11:29:23;;;;;;;;;3.00;2.00;;;;;15.04;71.58;100875.09;5022570;28;46040;-80